createdAt,value
2017-12-19T00:01:44.054Z,42.97
2017-12-19T00:03:47.454Z,42.98
2017-12-19T00:05:50.845Z,42.99
2017-12-19T00:07:54.136Z,42.98
2017-12-19T00:09:57.432Z,42.98
2017-12-19T00:12:00.731Z,43.00
2017-12-19T00:14:04.208Z,43.00
2017-12-19T00:16:07.488Z,43.00
2017-12-19T00:18:10.851Z,43.01
2017-12-19T00:20:14.287Z,43.01
2017-12-19T00:22:17.723Z,43.01
2017-12-19T00:24:21.063Z,42.99
2017-12-19T00:26:25.821Z,43.00
2017-12-19T00:28:29.284Z,43.01
2017-12-19T00:30:32.675Z,43.01
2017-12-19T00:32:36.067Z,43.03
2017-12-19T00:34:39.345Z,43.04
2017-12-19T00:36:42.688Z,43.04
2017-12-19T00:38:46.068Z,43.04
2017-12-19T00:40:49.427Z,43.04
2017-12-19T00:42:52.812Z,43.05
2017-12-19T00:44:56.136Z,43.04
2017-12-19T00:46:59.540Z,43.05
2017-12-19T00:49:02.836Z,43.05
2017-12-19T00:51:06.157Z,43.05
2017-12-19T00:53:09.513Z,43.05
2017-12-19T00:55:12.815Z,43.05
2017-12-19T00:57:16.253Z,43.05
2017-12-19T00:59:19.530Z,43.06
2017-12-19T01:01:22.936Z,43.05
2017-12-19T01:03:26.268Z,43.06
2017-12-19T01:05:29.655Z,43.07
2017-12-19T01:07:33.062Z,43.07
2017-12-19T01:09:36.399Z,43.07
2017-12-19T01:11:39.733Z,43.07
2017-12-19T01:13:43.091Z,43.08
2017-12-19T01:15:46.472Z,43.07
2017-12-19T01:17:49.740Z,43.08
2017-12-19T01:19:53.153Z,43.06
2017-12-19T01:21:56.452Z,43.07
2017-12-19T01:23:59.765Z,43.07
2017-12-19T01:26:03.229Z,43.06
2017-12-19T01:28:06.536Z,43.07
2017-12-19T01:30:09.908Z,43.07
2017-12-19T01:32:13.229Z,43.08
2017-12-19T01:34:16.589Z,43.09
2017-12-19T01:36:19.874Z,43.08
2017-12-19T01:38:23.256Z,43.09
2017-12-19T01:40:26.612Z,43.09
2017-12-19T01:42:29.903Z,43.10
2017-12-19T01:44:33.447Z,43.10
2017-12-19T01:46:36.771Z,43.10
2017-12-19T01:48:40.063Z,43.11
2017-12-19T01:50:43.443Z,43.10
2017-12-19T01:52:46.761Z,43.11
2017-12-19T01:54:50.140Z,43.11
2017-12-19T01:56:53.444Z,43.12
2017-12-19T01:58:56.812Z,43.12
2017-12-19T02:01:00.175Z,43.11
2017-12-19T02:03:03.500Z,43.11
2017-12-19T02:05:06.852Z,43.11
2017-12-19T02:07:10.129Z,43.12
2017-12-19T02:09:13.448Z,43.11
2017-12-19T02:11:16.744Z,43.11
2017-12-19T02:13:20.034Z,43.11
2017-12-19T02:15:23.319Z,43.12
2017-12-19T02:17:26.792Z,43.12
2017-12-19T02:19:30.104Z,43.11
2017-12-19T02:21:33.474Z,43.11
2017-12-19T02:23:36.865Z,43.11
2017-12-19T02:25:40.131Z,43.11
2017-12-19T02:27:43.511Z,43.12
2017-12-19T02:29:46.847Z,43.13
2017-12-19T02:31:50.153Z,43.12
2017-12-19T02:33:53.516Z,43.12
2017-12-19T02:35:56.820Z,43.13
2017-12-19T02:38:00.199Z,43.12
2017-12-19T02:40:03.486Z,43.12
2017-12-19T02:42:06.801Z,43.13
2017-12-19T02:44:10.174Z,43.13
2017-12-19T02:46:13.655Z,43.13
2017-12-19T02:48:16.983Z,43.13
2017-12-19T02:50:20.344Z,43.14
2017-12-19T02:52:23.636Z,43.14
2017-12-19T02:54:27.024Z,43.14
2017-12-19T02:56:30.297Z,43.14
2017-12-19T02:58:33.706Z,43.14
2017-12-19T03:00:37.004Z,43.14
2017-12-19T03:02:40.387Z,43.14
2017-12-19T03:04:43.676Z,43.15
2017-12-19T03:06:47.000Z,43.15
2017-12-19T03:08:50.291Z,43.15
2017-12-19T03:10:53.645Z,43.15
2017-12-19T03:12:56.973Z,43.14
2017-12-19T03:15:00.369Z,43.15
2017-12-19T03:17:03.721Z,43.15
2017-12-19T03:19:07.038Z,43.15
2017-12-19T03:21:10.324Z,43.15
2017-12-19T03:23:13.613Z,43.14
2017-12-19T03:25:16.936Z,43.15
2017-12-19T03:27:20.237Z,43.14
2017-12-19T03:29:23.556Z,43.14
2017-12-19T03:31:26.857Z,43.15
2017-12-19T03:33:30.151Z,43.15
2017-12-19T03:35:33.463Z,43.15
2017-12-19T03:37:36.785Z,43.14
2017-12-19T03:39:40.210Z,43.16
2017-12-19T03:41:43.548Z,43.16
2017-12-19T03:43:46.869Z,43.16
2017-12-19T03:45:50.180Z,43.15
2017-12-19T03:47:53.575Z,43.16
2017-12-19T03:49:56.905Z,43.16
2017-12-19T03:52:00.251Z,43.17
2017-12-19T03:54:03.542Z,43.16
2017-12-19T03:56:06.874Z,43.17
2017-12-19T03:58:10.451Z,43.17
2017-12-19T04:00:13.749Z,43.17
2017-12-19T04:02:17.140Z,43.16
2017-12-19T04:04:20.411Z,43.16
2017-12-19T04:06:23.703Z,43.17
2017-12-19T04:08:27.182Z,43.17
2017-12-19T04:10:30.452Z,43.16
2017-12-19T04:12:34.041Z,43.16
2017-12-19T04:14:37.458Z,43.16
2017-12-19T04:16:40.882Z,43.17
2017-12-19T04:18:44.253Z,43.17
2017-12-19T04:20:47.558Z,43.18
2017-12-19T04:22:50.844Z,43.17
2017-12-19T04:24:54.154Z,43.17
2017-12-19T04:26:57.481Z,43.18
2017-12-19T04:29:00.767Z,43.17
2017-12-19T04:31:04.124Z,43.17
2017-12-19T04:33:07.479Z,43.17
2017-12-19T04:35:10.752Z,43.17
2017-12-19T04:37:14.155Z,43.17
2017-12-19T04:39:17.484Z,43.17
2017-12-19T04:41:20.950Z,43.18
2017-12-19T04:43:24.222Z,43.19
2017-12-19T04:45:27.621Z,43.19
2017-12-19T04:47:30.891Z,43.19
2017-12-19T04:49:34.399Z,43.17
2017-12-19T04:51:37.716Z,43.19
2017-12-19T04:53:41.189Z,43.19
2017-12-19T04:55:44.519Z,43.19
2017-12-19T04:57:47.916Z,43.19
2017-12-19T04:59:51.219Z,43.18
2017-12-19T05:01:54.547Z,43.19
2017-12-19T05:03:57.851Z,43.19
2017-12-19T05:06:01.156Z,43.20
2017-12-19T05:08:04.459Z,43.21
2017-12-19T05:10:07.795Z,43.21
2017-12-19T05:12:11.203Z,43.22
2017-12-19T05:14:14.500Z,43.21
2017-12-19T05:16:18.086Z,43.21
2017-12-19T05:18:21.355Z,43.21
2017-12-19T05:20:24.652Z,43.21
2017-12-19T05:22:27.995Z,43.22
2017-12-19T05:24:31.377Z,43.21
2017-12-19T05:26:34.737Z,43.22
2017-12-19T05:28:38.234Z,43.22
2017-12-19T05:30:41.509Z,43.22
2017-12-19T05:32:44.811Z,43.22
2017-12-19T05:34:48.134Z,43.21
2017-12-19T05:36:51.424Z,43.22
2017-12-19T05:38:54.721Z,43.23
2017-12-19T05:40:58.070Z,43.23
2017-12-19T05:43:01.359Z,43.23
2017-12-19T05:45:04.688Z,43.22
2017-12-19T05:47:08.076Z,43.23
2017-12-19T05:49:11.429Z,43.22
2017-12-19T05:51:14.862Z,43.22
2017-12-19T05:53:18.215Z,43.22
2017-12-19T05:55:21.604Z,43.23
2017-12-19T05:57:24.884Z,43.24
2017-12-19T05:59:28.291Z,43.24
2017-12-19T06:01:31.577Z,43.24
2017-12-19T06:03:34.897Z,43.23
2017-12-19T06:05:38.191Z,43.25
2017-12-19T06:07:41.625Z,43.24
2017-12-19T06:09:45.559Z,43.25
2017-12-19T06:11:48.864Z,43.25
2017-12-19T06:13:52.239Z,43.25
2017-12-19T06:15:55.603Z,43.25
2017-12-19T06:17:58.918Z,43.25
2017-12-19T06:20:02.208Z,43.25
2017-12-19T06:22:05.502Z,43.25
2017-12-19T06:24:08.923Z,43.26
2017-12-19T06:26:12.280Z,43.26
2017-12-19T06:28:15.557Z,43.25
2017-12-19T06:30:18.919Z,43.25
2017-12-19T06:32:22.335Z,43.24
2017-12-19T06:34:25.632Z,43.25
2017-12-19T06:36:28.961Z,43.26
2017-12-19T06:38:32.326Z,43.25
2017-12-19T06:40:35.638Z,43.26
2017-12-19T06:42:39.035Z,43.25
2017-12-19T06:44:42.332Z,43.24
2017-12-19T06:46:45.646Z,43.25
2017-12-19T06:48:49.180Z,43.24
2017-12-19T06:50:52.574Z,43.24
2017-12-19T06:52:56.107Z,43.24
2017-12-19T06:54:59.567Z,43.24
2017-12-19T06:57:02.853Z,43.24
2017-12-19T06:59:06.176Z,43.25
2017-12-19T07:01:09.516Z,43.25
2017-12-19T07:03:12.824Z,43.25
2017-12-19T07:05:16.124Z,43.25
2017-12-19T07:07:19.449Z,43.25
2017-12-19T07:09:22.906Z,43.24
2017-12-19T07:11:26.298Z,43.24
2017-12-19T07:13:29.856Z,43.23
2017-12-19T07:15:33.481Z,43.24
2017-12-19T07:17:36.808Z,43.21
2017-12-19T07:19:40.623Z,43.37
2017-12-19T07:21:44.047Z,43.34
2017-12-19T07:23:47.399Z,43.31
2017-12-19T07:25:50.892Z,43.21
2017-12-19T07:27:54.280Z,43.13
2017-12-19T07:29:57.569Z,43.07
2017-12-19T07:32:00.909Z,43.04
2017-12-19T07:34:04.224Z,43.02
2017-12-19T07:36:07.555Z,43.01
2017-12-19T07:38:10.982Z,43.03
2017-12-19T07:40:14.275Z,43.02
2017-12-19T07:42:17.587Z,43.00
2017-12-19T07:44:20.899Z,42.96
2017-12-19T07:46:24.208Z,42.97
2017-12-19T07:48:27.528Z,42.96
2017-12-19T07:50:30.934Z,42.97
2017-12-19T07:52:34.330Z,42.94
2017-12-19T07:54:38.055Z,42.91
2017-12-19T07:56:41.464Z,42.86
2017-12-19T07:58:44.752Z,42.85
2017-12-19T08:00:48.041Z,42.85
2017-12-19T08:02:51.355Z,42.85
2017-12-19T08:04:54.666Z,42.81
2017-12-19T08:06:57.944Z,42.80
2017-12-19T08:09:01.366Z,42.77
2017-12-19T08:11:04.748Z,42.75
2017-12-19T08:13:08.033Z,42.75
2017-12-19T08:15:11.354Z,42.76
2017-12-19T08:17:14.720Z,42.76
2017-12-19T08:19:18.048Z,42.72
2017-12-19T08:21:21.372Z,42.72
2017-12-19T08:23:24.663Z,42.67
2017-12-19T08:25:28.082Z,42.68
2017-12-19T08:27:31.379Z,42.67
2017-12-19T08:29:34.700Z,42.63
2017-12-19T08:31:38.115Z,42.62
2017-12-19T08:33:41.512Z,42.66
2017-12-19T08:35:45.080Z,42.69
2017-12-19T08:37:48.431Z,42.70
2017-12-19T08:39:51.760Z,42.71
2017-12-19T08:41:55.052Z,42.71
2017-12-19T08:43:58.364Z,42.75
2017-12-19T08:46:01.690Z,42.75
2017-12-19T08:48:05.180Z,42.73
2017-12-19T08:50:08.476Z,42.75
2017-12-19T08:52:11.849Z,42.74
2017-12-19T08:54:15.135Z,42.75
2017-12-19T08:56:18.650Z,42.73
2017-12-19T08:58:22.044Z,42.72
2017-12-19T09:00:25.440Z,42.71
2017-12-19T09:02:28.709Z,42.72
2017-12-19T09:04:32.060Z,42.72
2017-12-19T09:06:35.444Z,42.74
2017-12-19T09:08:38.760Z,42.70
2017-12-19T09:10:42.096Z,42.71
2017-12-19T09:12:45.384Z,42.71
2017-12-19T09:14:48.768Z,42.71
2017-12-19T09:16:52.067Z,42.70
2017-12-19T09:18:55.372Z,42.71
2017-12-19T09:20:58.687Z,42.70
2017-12-19T09:23:02.032Z,42.69
2017-12-19T09:25:05.418Z,42.69
2017-12-19T09:27:08.692Z,42.67
2017-12-19T09:29:12.036Z,42.66
2017-12-19T09:31:15.424Z,42.65
2017-12-19T09:33:18.747Z,42.65
2017-12-19T09:35:22.089Z,42.65
2017-12-19T09:37:25.428Z,42.67
2017-12-19T09:39:29.644Z,42.69
2017-12-19T09:41:32.987Z,42.67
2017-12-19T09:43:36.800Z,42.68
2017-12-19T09:45:40.092Z,42.68
2017-12-19T09:47:43.549Z,42.68
2017-12-19T09:49:47.116Z,42.66
2017-12-19T09:51:50.440Z,42.50
2017-12-19T09:53:53.744Z,42.52
2017-12-19T09:55:57.116Z,42.55
2017-12-19T09:58:00.611Z,42.57
2017-12-19T10:00:03.921Z,42.53
2017-12-19T10:02:07.232Z,42.52
2017-12-19T10:04:10.502Z,42.52
2017-12-19T10:06:13.874Z,42.50
2017-12-19T10:08:17.159Z,42.51
2017-12-19T10:10:20.764Z,42.56
2017-12-19T10:12:24.077Z,42.57
2017-12-19T10:14:27.420Z,42.54
2017-12-19T10:16:31.124Z,42.50
2017-12-19T10:18:34.472Z,42.50
2017-12-19T10:20:37.841Z,42.49
2017-12-19T10:22:41.170Z,42.49
2017-12-19T10:24:44.515Z,42.48
2017-12-19T10:26:47.889Z,42.47
2017-12-19T10:28:51.177Z,42.46
2017-12-19T10:30:54.574Z,42.46
2017-12-19T10:32:57.838Z,42.47
2017-12-19T10:35:01.134Z,42.48
2017-12-19T10:37:04.469Z,42.51
2017-12-19T10:39:07.833Z,42.51
2017-12-19T10:41:11.120Z,42.53
2017-12-19T10:43:14.433Z,42.53
2017-12-19T10:45:17.721Z,42.53
2017-12-19T10:47:21.012Z,42.53
2017-12-19T10:49:24.337Z,42.52
2017-12-19T10:51:27.708Z,42.57
2017-12-19T10:53:31.096Z,42.54
2017-12-19T10:55:34.554Z,42.52
2017-12-19T10:57:37.829Z,42.50
2017-12-19T10:59:41.338Z,42.50
2017-12-19T11:01:44.655Z,42.49
2017-12-19T11:03:47.944Z,42.51
2017-12-19T11:05:51.270Z,42.53
2017-12-19T11:07:54.716Z,42.54
2017-12-19T11:09:58.034Z,42.55
2017-12-19T11:12:01.382Z,42.56
2017-12-19T11:14:04.697Z,42.56
2017-12-19T11:16:08.063Z,42.58
2017-12-19T11:18:11.767Z,42.58
2017-12-19T11:20:15.045Z,42.58
2017-12-19T11:22:18.749Z,42.56
2017-12-19T11:24:22.094Z,42.56
2017-12-19T11:26:25.483Z,42.64
2017-12-19T11:28:28.779Z,42.64
2017-12-19T11:30:32.221Z,42.66
2017-12-19T11:32:35.594Z,42.68
2017-12-19T11:34:38.916Z,42.56
2017-12-19T11:36:42.247Z,42.60
2017-12-19T11:38:45.576Z,42.57
2017-12-19T11:40:48.901Z,42.67
2017-12-19T11:42:52.288Z,42.61
2017-12-19T11:44:55.855Z,42.60
2017-12-19T11:46:59.172Z,42.60
2017-12-19T11:49:02.496Z,42.63
2017-12-19T11:51:05.875Z,42.63
2017-12-19T11:53:09.184Z,42.62
2017-12-19T11:55:12.463Z,42.63
2017-12-19T11:57:15.848Z,42.67
2017-12-19T11:59:19.131Z,42.65
2017-12-19T12:01:22.524Z,42.66
2017-12-19T12:03:25.849Z,42.67
2017-12-19T12:05:29.190Z,42.67
2017-12-19T12:07:32.493Z,42.65
2017-12-19T12:09:35.838Z,42.68
2017-12-19T12:11:39.128Z,42.73
2017-12-19T12:13:42.418Z,42.75
2017-12-19T12:15:45.870Z,42.77
2017-12-19T12:17:49.141Z,42.79
2017-12-19T12:19:52.490Z,42.79
2017-12-19T12:21:55.835Z,42.85
2017-12-19T12:23:59.135Z,42.92
2017-12-19T12:26:02.445Z,42.97
2017-12-19T12:28:05.772Z,42.94
2017-12-19T12:30:09.068Z,42.94
2017-12-19T12:32:12.376Z,42.94
2017-12-19T12:34:15.756Z,42.93
2017-12-19T12:36:19.051Z,42.92
2017-12-19T12:38:22.404Z,42.93
2017-12-19T12:40:25.801Z,42.92
2017-12-19T12:42:29.120Z,42.92
2017-12-19T12:44:32.513Z,42.88
2017-12-19T12:46:35.901Z,42.80
2017-12-19T12:48:39.392Z,42.83
2017-12-19T12:50:42.691Z,42.86
2017-12-19T12:52:46.120Z,42.87
2017-12-19T12:54:49.420Z,42.86
2017-12-19T12:56:52.827Z,42.84
2017-12-19T12:58:56.147Z,42.85
2017-12-19T13:00:59.584Z,42.88
2017-12-19T13:03:02.989Z,42.88
2017-12-19T13:05:06.328Z,42.89
2017-12-19T13:07:09.681Z,42.90
2017-12-19T13:09:12.972Z,42.91
2017-12-19T13:11:16.365Z,42.91
2017-12-19T13:13:19.661Z,42.90
2017-12-19T13:15:23.048Z,42.93
2017-12-19T13:17:26.373Z,42.93
2017-12-19T13:19:29.693Z,42.95
2017-12-19T13:21:33.766Z,42.99
2017-12-19T13:23:37.092Z,43.02
2017-12-19T13:25:40.388Z,43.04
2017-12-19T13:27:43.735Z,43.08
2017-12-19T13:29:47.083Z,43.11
2017-12-19T13:31:50.415Z,43.13
2017-12-19T13:33:53.878Z,43.16
2017-12-19T13:35:57.239Z,43.19
2017-12-19T13:38:00.558Z,43.26
2017-12-19T13:40:03.960Z,43.34
2017-12-19T13:42:07.262Z,43.42
2017-12-19T13:44:10.550Z,43.51
2017-12-19T13:46:13.905Z,43.57
2017-12-19T13:48:17.251Z,43.65
2017-12-19T13:50:20.537Z,43.73
2017-12-19T13:52:23.860Z,43.82
2017-12-19T13:54:27.282Z,43.88
2017-12-19T13:56:30.607Z,44.12
2017-12-19T13:58:33.906Z,44.22
2017-12-19T14:00:37.280Z,44.19
2017-12-19T14:02:40.645Z,44.22
2017-12-19T14:04:44.060Z,44.29
2017-12-19T14:06:47.532Z,44.43
2017-12-19T14:08:50.799Z,44.46
2017-12-19T14:10:54.218Z,44.60
2017-12-19T14:12:57.580Z,44.60
2017-12-19T14:15:01.028Z,44.62
2017-12-19T14:17:04.335Z,44.69
2017-12-19T14:19:07.688Z,44.76
2017-12-19T14:21:11.106Z,44.78
2017-12-19T14:23:14.392Z,44.82
2017-12-19T14:25:17.797Z,44.81
2017-12-19T14:27:21.055Z,44.82
2017-12-19T14:29:24.369Z,44.87
2017-12-19T14:31:27.721Z,44.88
2017-12-19T14:33:31.040Z,44.95
2017-12-19T14:35:34.509Z,44.95
2017-12-19T14:37:37.902Z,44.95
2017-12-19T14:39:41.288Z,44.94
2017-12-19T14:41:44.619Z,44.92
2017-12-19T14:43:47.936Z,44.91
2017-12-19T14:45:51.258Z,44.91
2017-12-19T14:47:54.536Z,45.09
2017-12-19T14:49:57.851Z,45.08
2017-12-19T14:52:01.164Z,44.99
2017-12-19T14:54:04.569Z,44.95
2017-12-19T14:56:07.905Z,44.95
2017-12-19T14:58:11.196Z,44.96
2017-12-19T15:00:14.594Z,44.96
2017-12-19T15:02:17.900Z,44.95
2017-12-19T15:04:21.202Z,44.94
2017-12-19T15:06:24.666Z,44.91
2017-12-19T15:08:28.055Z,44.91
2017-12-19T15:10:31.383Z,44.89
2017-12-19T15:12:34.789Z,44.88
2017-12-19T15:14:38.238Z,44.87
2017-12-19T15:16:41.520Z,44.85
2017-12-19T15:18:44.824Z,44.85
2017-12-19T15:20:48.236Z,44.84
2017-12-19T15:22:51.585Z,44.81
2017-12-19T15:24:54.896Z,44.79
2017-12-19T15:26:58.206Z,44.78
2017-12-19T15:29:01.565Z,44.78
2017-12-19T15:31:04.835Z,44.78
2017-12-19T15:33:08.156Z,44.76
2017-12-19T15:35:11.535Z,44.74
2017-12-19T15:37:14.872Z,44.71
2017-12-19T15:39:18.291Z,44.70
2017-12-19T15:41:21.610Z,44.70
2017-12-19T15:43:24.892Z,44.68
2017-12-19T15:45:28.212Z,44.67
2017-12-19T15:47:31.578Z,44.68
2017-12-19T15:49:34.875Z,44.65
2017-12-19T15:51:38.364Z,44.64
2017-12-19T15:53:41.706Z,44.63
2017-12-19T15:55:44.980Z,44.63
2017-12-19T15:57:48.293Z,44.63
2017-12-19T15:59:51.723Z,44.64
2017-12-19T16:01:55.013Z,44.64
2017-12-19T16:03:58.405Z,44.63
2017-12-19T16:06:01.797Z,44.60
2017-12-19T16:08:05.123Z,44.61
2017-12-19T16:10:08.476Z,44.62
2017-12-19T16:12:11.820Z,44.60
2017-12-19T16:14:15.159Z,44.58
2017-12-19T16:16:18.475Z,44.58
2017-12-19T16:18:21.954Z,44.58
2017-12-19T16:20:25.353Z,44.57
2017-12-19T16:22:28.664Z,44.57
2017-12-19T16:24:32.016Z,44.56
2017-12-19T16:26:35.333Z,44.56
2017-12-19T16:28:38.804Z,44.54
2017-12-19T16:30:42.096Z,44.53
2017-12-19T16:32:45.416Z,44.53
2017-12-19T16:34:48.732Z,44.51
2017-12-19T16:36:52.107Z,44.50
2017-12-19T16:38:55.556Z,44.51
2017-12-19T16:40:58.860Z,44.50
2017-12-19T16:43:02.148Z,44.50
2017-12-19T16:45:05.524Z,44.49
2017-12-19T16:47:08.827Z,44.48
2017-12-19T16:49:12.141Z,44.45
2017-12-19T16:51:15.480Z,44.43
2017-12-19T16:53:19.654Z,44.43
2017-12-19T16:55:22.994Z,44.43
2017-12-19T16:57:26.285Z,44.43
2017-12-19T16:59:29.621Z,44.43
2017-12-19T17:01:32.923Z,44.43
2017-12-19T17:03:36.270Z,44.42
2017-12-19T17:05:39.603Z,44.44
2017-12-19T17:07:43.034Z,44.46
2017-12-19T17:09:46.539Z,44.46
2017-12-19T17:11:49.824Z,44.47
2017-12-19T17:13:53.116Z,44.49
2017-12-19T17:15:56.439Z,44.50
2017-12-19T17:17:59.768Z,44.52
2017-12-19T17:20:03.058Z,44.52
2017-12-19T17:22:06.361Z,44.54
2017-12-19T17:24:09.681Z,44.55
2017-12-19T17:26:13.053Z,44.58
2017-12-19T17:28:16.337Z,44.60
2017-12-19T17:30:19.703Z,44.59
2017-12-19T17:32:23.085Z,44.61
2017-12-19T17:34:26.364Z,44.62
2017-12-19T17:36:29.704Z,44.61
2017-12-19T17:38:33.005Z,44.60
2017-12-19T17:40:36.368Z,44.62
2017-12-19T17:42:39.764Z,44.63
2017-12-19T17:44:43.028Z,44.62
2017-12-19T17:46:46.320Z,44.63
2017-12-19T17:48:49.746Z,44.63
2017-12-19T17:50:53.152Z,44.65
2017-12-19T17:52:56.440Z,44.65
2017-12-19T17:54:59.776Z,44.67
2017-12-19T17:57:03.214Z,44.69
2017-12-19T17:59:06.496Z,44.72
2017-12-19T18:01:09.816Z,44.73
2017-12-19T18:03:13.112Z,44.73
2017-12-19T18:05:16.475Z,44.73
2017-12-19T18:07:19.797Z,44.73
2017-12-19T18:09:23.357Z,44.71
2017-12-19T18:11:26.748Z,44.73
2017-12-19T18:13:30.142Z,44.78
2017-12-19T18:15:33.437Z,44.76
2017-12-19T18:17:36.822Z,44.76
2017-12-19T18:19:40.247Z,44.76
2017-12-19T18:21:43.544Z,44.76
2017-12-19T18:23:46.905Z,44.34
2017-12-19T18:25:50.245Z,44.20
2017-12-19T18:27:53.628Z,44.03
2017-12-19T18:29:56.967Z,43.86
2017-12-19T18:32:00.272Z,43.81
2017-12-19T18:34:03.653Z,43.75
2017-12-19T18:36:07.089Z,43.72
2017-12-19T18:38:10.394Z,43.63
2017-12-19T18:40:13.776Z,43.62
2017-12-19T18:42:17.117Z,43.68
2017-12-19T18:44:20.506Z,43.77
2017-12-19T18:46:23.808Z,43.85
2017-12-19T18:48:27.920Z,43.89
2017-12-19T18:50:31.236Z,43.92
2017-12-19T18:52:34.677Z,43.96
2017-12-19T18:54:38.047Z,43.96
2017-12-19T18:56:41.574Z,43.98
2017-12-19T18:58:44.847Z,43.99
2017-12-19T19:00:48.254Z,44.00
2017-12-19T19:02:51.646Z,44.00
2017-12-19T19:04:54.912Z,44.00
2017-12-19T19:06:58.326Z,44.00
2017-12-19T19:09:01.659Z,44.01
2017-12-19T19:11:05.042Z,44.02
2017-12-19T19:13:08.603Z,44.01
2017-12-19T19:15:11.997Z,44.01
2017-12-19T19:17:15.285Z,44.01
2017-12-19T19:19:18.654Z,44.01
2017-12-19T19:21:22.221Z,44.00
2017-12-19T19:23:25.498Z,43.99
2017-12-19T19:25:29.058Z,43.96
2017-12-19T19:27:32.453Z,43.94
2017-12-19T19:29:35.752Z,43.94
2017-12-19T19:31:39.130Z,43.93
2017-12-19T19:33:42.804Z,43.93
2017-12-19T19:35:46.107Z,43.92
2017-12-19T19:37:49.511Z,43.91
2017-12-19T19:39:53.312Z,43.93
2017-12-19T19:41:56.708Z,43.92
2017-12-19T19:43:59.976Z,43.91
2017-12-19T19:46:03.589Z,43.91
2017-12-19T19:48:07.289Z,43.91
2017-12-19T19:50:10.785Z,43.90
2017-12-19T19:52:14.174Z,43.87
2017-12-19T19:54:18.078Z,43.87
2017-12-19T19:56:21.723Z,43.88
2017-12-19T19:58:25.069Z,43.83
2017-12-19T20:00:28.413Z,43.82
2017-12-19T20:02:31.748Z,43.81
2017-12-19T20:04:35.057Z,43.79
2017-12-19T20:06:38.364Z,43.78
2017-12-19T20:08:41.719Z,43.77
2017-12-19T20:10:45.111Z,43.76
2017-12-19T20:12:48.484Z,43.78
2017-12-19T20:14:51.904Z,43.77
2017-12-19T20:16:55.231Z,43.76
2017-12-19T20:18:58.525Z,43.75
2017-12-19T20:21:02.000Z,43.75
2017-12-19T20:23:05.252Z,43.74
2017-12-19T20:25:08.588Z,43.74
2017-12-19T20:27:12.063Z,43.70
2017-12-19T20:29:15.439Z,43.72
2017-12-19T20:31:18.779Z,43.71
2017-12-19T20:33:22.163Z,43.71
2017-12-19T20:35:25.474Z,43.71
2017-12-19T20:37:28.768Z,43.70
2017-12-19T20:39:32.084Z,43.70
2017-12-19T20:41:37.197Z,43.70
2017-12-19T20:43:40.815Z,43.69
2017-12-19T20:45:44.105Z,43.69
2017-12-19T20:47:47.599Z,43.69
2017-12-19T20:49:50.926Z,43.68
2017-12-19T20:51:54.287Z,43.68
2017-12-19T20:53:57.636Z,43.68
2017-12-19T20:56:00.958Z,43.68
2017-12-19T20:58:04.252Z,43.68
2017-12-19T21:00:07.681Z,43.69
2017-12-19T21:02:10.996Z,43.69
2017-12-19T21:04:14.319Z,43.69
2017-12-19T21:06:17.815Z,43.67
2017-12-19T21:08:21.860Z,43.68
2017-12-19T21:10:25.192Z,43.68
2017-12-19T21:12:28.610Z,43.70
2017-12-19T21:14:31.888Z,43.68
2017-12-19T21:16:35.340Z,43.68
2017-12-19T21:18:38.685Z,43.70
2017-12-19T21:20:41.986Z,43.70
2017-12-19T21:22:45.342Z,43.69
2017-12-19T21:24:48.734Z,43.69
2017-12-19T21:26:52.039Z,43.69
2017-12-19T21:28:55.429Z,43.70
2017-12-19T21:30:58.929Z,43.70
2017-12-19T21:33:02.208Z,43.70
2017-12-19T21:35:05.605Z,43.71
2017-12-19T21:37:08.948Z,43.71
2017-12-19T21:39:12.236Z,43.71
2017-12-19T21:41:15.615Z,43.72
2017-12-19T21:43:18.969Z,43.71
2017-12-19T21:45:22.328Z,43.72
2017-12-19T21:47:25.649Z,43.73
2017-12-19T21:49:28.981Z,43.72
2017-12-19T21:51:32.272Z,43.72
2017-12-19T21:53:35.656Z,43.72
2017-12-19T21:55:39.021Z,43.72
2017-12-19T21:57:42.297Z,43.72
2017-12-19T21:59:45.585Z,43.75
2017-12-19T22:01:49.090Z,43.72
2017-12-19T22:03:52.369Z,43.73
2017-12-19T22:05:55.659Z,43.73
2017-12-19T22:07:59.009Z,43.74
2017-12-19T22:10:02.302Z,43.74
2017-12-19T22:12:05.588Z,43.74
2017-12-19T22:14:08.909Z,43.74
2017-12-19T22:16:12.209Z,43.74
2017-12-19T22:18:15.605Z,43.74
2017-12-19T22:20:18.932Z,43.74
2017-12-19T22:22:22.213Z,43.74
2017-12-19T22:24:25.678Z,43.75
2017-12-19T22:26:29.069Z,43.75
2017-12-19T22:28:32.341Z,43.76
2017-12-19T22:30:35.703Z,43.76
2017-12-19T22:32:39.031Z,43.76
2017-12-19T22:34:42.336Z,43.76
2017-12-19T22:36:45.654Z,43.76
2017-12-19T22:38:49.009Z,43.76
2017-12-19T22:40:52.404Z,43.76
2017-12-19T22:42:55.731Z,43.77
2017-12-19T22:44:59.068Z,43.77
2017-12-19T22:47:02.484Z,43.78
2017-12-19T22:49:05.783Z,43.77
2017-12-19T22:51:09.192Z,43.77
2017-12-19T22:53:12.540Z,43.78
2017-12-19T22:55:15.940Z,43.78
2017-12-19T22:57:19.332Z,43.78
2017-12-19T22:59:22.622Z,43.79
2017-12-19T23:01:25.907Z,43.78
2017-12-19T23:03:29.336Z,43.78
2017-12-19T23:05:32.628Z,43.78
2017-12-19T23:07:35.943Z,43.79
2017-12-19T23:09:39.325Z,43.79
2017-12-19T23:11:42.692Z,43.79
2017-12-19T23:13:45.987Z,43.79
2017-12-19T23:15:49.314Z,43.79
2017-12-19T23:17:52.643Z,43.80
2017-12-19T23:19:56.112Z,43.80
2017-12-19T23:21:59.441Z,43.80
2017-12-19T23:24:02.748Z,43.79
2017-12-19T23:26:06.035Z,43.80
2017-12-19T23:28:09.436Z,43.80
2017-12-19T23:30:12.724Z,43.81
2017-12-19T23:32:16.012Z,43.80
2017-12-19T23:34:19.386Z,43.81
2017-12-19T23:36:22.750Z,43.82
2017-12-19T23:38:26.060Z,43.81
2017-12-19T23:40:29.388Z,43.82
2017-12-19T23:42:32.702Z,43.82
2017-12-19T23:44:35.988Z,43.82
2017-12-19T23:46:39.397Z,43.82
2017-12-19T23:48:42.702Z,43.83
2017-12-19T23:50:45.988Z,43.82
2017-12-19T23:52:49.314Z,43.82
2017-12-19T23:54:52.607Z,43.81
2017-12-19T23:56:55.916Z,43.82
2017-12-19T23:58:59.220Z,43.81
